Time;durP1;ratioP1;P1;durP2;ratioP2;P2;SDS_P1;SDS_P2;PMS_P1;PMS_P2;Temp;Humidity;BMP_temperature;BMP_pressure;BME280_temperature;BME280_humidity;BME280_pressure;Samples;Min_cycle;Max_cycle;Signal;HPM_P1;HPM_P2
2021/12/19 00:01:30;;;;;;;35.40;21.13;;;;;;;;;;5006610;28;20209;-86
2021/12/19 00:04:23;;;;;;;32.40;18.90;;;;;;;;;;5034980;28;20226;-87
2021/12/19 00:12:28;;;;;;;36.80;20.13;;;;;;;;;;5015587;28;20230;-87
2021/12/19 00:14:55;;;;;;;31.73;18.93;;;;;;;;;;5014028;28;20221;-84
2021/12/19 00:17:42;;;;;;;30.03;18.43;;;;;;;;;;5015510;28;20246;-89
2021/12/19 00:20:20;;;;;;;32.70;19.33;;;;;;;;;;5013666;28;20206;-87
2021/12/19 00:22:50;;;;;;;33.83;19.60;;;;;;;;;;5014943;28;20221;-88
2021/12/19 00:25:17;;;;;;;35.13;19.47;;;;;;;;;;5008636;28;20210;-89
2021/12/19 00:27:48;;;;;;;32.20;18.43;;;;;;;;;;5016756;28;20707;-88
2021/12/19 00:30:17;;;;;;;35.13;19.40;;;;;;;;;;5013791;28;20210;-89
2021/12/19 00:32:53;;;;;;;33.07;20.10;;;;;;;;;;5013082;28;20202;-87
2021/12/19 00:35:22;;;;;;;34.87;19.43;;;;;;;;;;5015388;28;20220;-87
2021/12/19 00:37:50;;;;;;;33.03;19.43;;;;;;;;;;5010321;28;20227;-87
2021/12/19 00:40:17;;;;;;;32.90;18.63;;;;;;;;;;5010111;28;20206;-87
2021/12/19 00:42:51;;;;;;;36.00;19.47;;;;;;;;;;5014066;28;20206;-88
2021/12/19 00:45:26;;;;;;;32.63;18.83;;;;;;;;;;5015268;28;20212;-88
2021/12/19 00:47:56;;;;;;;33.83;19.80;;;;;;;;;;5009659;28;20313;-87
2021/12/19 00:50:36;;;;;;;35.70;20.57;;;;;;;;;;5014503;28;20206;-88
2021/12/19 00:53:05;;;;;;;37.10;20.60;;;;;;;;;;5009773;28;20199;-88
2021/12/19 00:58:14;;;;;;;35.23;20.07;;;;;;;;;;5006585;28;20230;-88
2021/12/19 01:00:57;;;;;;;35.53;20.90;;;;;;;;;;5015252;28;20225;-88
2021/12/19 01:06:12;;;;;;;36.63;20.37;;;;;;;;;;5014659;28;20207;-89
2021/12/19 01:08:40;;;;;;;35.33;20.17;;;;;;;;;;5015588;28;20206;-88
2021/12/19 01:11:08;;;;;;;38.20;22.20;;;;;;;;;;5015145;28;20218;-88
2021/12/19 01:13:35;;;;;;;39.37;21.47;;;;;;;;;;5015977;28;20206;-89
2021/12/19 01:16:03;;;;;;;38.53;21.90;;;;;;;;;;5015674;28;20206;-88
2021/12/19 01:18:32;;;;;;;34.83;20.10;;;;;;;;;;5014940;28;20213;-89
2021/12/19 01:21:00;;;;;;;36.30;20.87;;;;;;;;;;5013607;28;20265;-88
2021/12/19 01:23:30;;;;;;;31.40;17.37;;;;;;;;;;5012499;28;20209;-90
2021/12/19 01:25:59;;;;;;;24.97;14.43;;;;;;;;;;5015510;28;20288;-88
2021/12/19 01:28:32;;;;;;;24.27;14.37;;;;;;;;;;5011805;28;20200;-89
2021/12/19 01:30:59;;;;;;;27.93;15.03;;;;;;;;;;5007998;28;20672;-88
2021/12/19 01:33:29;;;;;;;22.13;13.37;;;;;;;;;;5015097;28;20204;-88
2021/12/19 01:35:58;;;;;;;22.10;12.67;;;;;;;;;;5009254;28;20214;-88
2021/12/19 01:38:30;;;;;;;19.47;11.53;;;;;;;;;;5014857;28;20237;-88
2021/12/19 01:40:57;;;;;;;21.43;13.33;;;;;;;;;;5013255;28;20199;-89
2021/12/19 01:43:28;;;;;;;22.43;13.30;;;;;;;;;;5012692;28;20207;-88
2021/12/19 01:45:59;;;;;;;24.80;14.60;;;;;;;;;;5013444;28;20217;-88
2021/12/19 01:48:32;;;;;;;23.03;13.33;;;;;;;;;;5013090;28;20233;-89
2021/12/19 01:51:01;;;;;;;23.23;13.27;;;;;;;;;;5009257;28;20226;-89
2021/12/19 01:53:29;;;;;;;28.03;14.53;;;;;;;;;;5012994;28;20226;-89
2021/12/19 01:56:03;;;;;;;24.40;14.53;;;;;;;;;;5012292;28;20227;-88
2021/12/19 01:58:30;;;;;;;22.53;12.60;;;;;;;;;;5013396;28;20206;-88
2021/12/19 02:01:01;;;;;;;22.47;12.60;;;;;;;;;;5065552;23;20304;-84
2021/12/19 02:03:30;;;;;;;21.10;12.50;;;;;;;;;;5035978;28;20201;-84
2021/12/19 02:05:57;;;;;;;22.07;12.83;;;;;;;;;;5035647;28;20205;-85
2021/12/19 02:08:26;;;;;;;20.43;12.00;;;;;;;;;;5034791;28;20237;-86
2021/12/19 02:10:53;;;;;;;19.27;11.77;;;;;;;;;;5034773;28;20252;-84
2021/12/19 02:13:21;;;;;;;18.13;11.23;;;;;;;;;;5035131;28;20206;-84
2021/12/19 02:15:51;;;;;;;19.13;11.67;;;;;;;;;;5032871;28;20229;-84
2021/12/19 02:21:05;;;;;;;24.03;13.30;;;;;;;;;;5032378;28;20221;-86
2021/12/19 02:23:32;;;;;;;26.50;14.13;;;;;;;;;;5034320;28;20244;-84
2021/12/19 02:25:59;;;;;;;25.07;14.93;;;;;;;;;;5027637;28;20293;-85
2021/12/19 02:28:26;;;;;;;24.47;14.90;;;;;;;;;;5027691;28;20210;-84
2021/12/19 02:30:58;;;;;;;26.60;14.63;;;;;;;;;;5027174;28;20305;-85
2021/12/19 02:33:27;;;;;;;24.50;15.37;;;;;;;;;;5028344;28;20263;-86
2021/12/19 02:36:07;;;;;;;25.80;15.03;;;;;;;;;;5033167;28;20214;-85
2021/12/19 02:49:51;;;;;;;23.37;13.40;;;;;;;;;;5032547;28;20569;-86
2021/12/19 02:52:22;;;;;;;22.83;13.50;;;;;;;;;;5028207;28;20312;-85
2021/12/19 02:54:50;;;;;;;24.90;14.13;;;;;;;;;;5031686;28;20226;-86
2021/12/19 02:57:21;;;;;;;27.00;14.80;;;;;;;;;;5034653;28;20229;-85
2021/12/19 02:59:50;;;;;;;22.67;12.60;;;;;;;;;;5034085;28;20205;-86
2021/12/19 03:02:18;;;;;;;24.10;13.63;;;;;;;;;;5035626;28;20279;-85
2021/12/19 03:04:53;;;;;;;24.33;14.10;;;;;;;;;;5034122;28;20260;-85
2021/12/19 03:07:20;;;;;;;23.90;14.20;;;;;;;;;;5030793;28;20293;-85
2021/12/19 03:10:13;;;;;;;23.83;13.73;;;;;;;;;;5033189;28;20283;-85
2021/12/19 03:13:02;;;;;;;28.00;13.87;;;;;;;;;;5034421;28;20734;-86
2021/12/19 03:21:16;;;;;;;22.27;12.80;;;;;;;;;;5025966;28;20249;-85
2021/12/19 03:23:44;;;;;;;23.27;13.27;;;;;;;;;;5046413;28;20202;-86
2021/12/19 03:29:25;;;;;;;21.73;12.23;;;;;;;;;;5034530;28;20259;-86
2021/12/19 03:31:55;;;;;;;26.07;14.37;;;;;;;;;;5031398;28;20252;-86
2021/12/19 03:40:35;;;;;;;24.17;13.00;;;;;;;;;;4995037;28;20202;-86
2021/12/19 03:43:06;;;;;;;23.40;12.50;;;;;;;;;;5044511;28;20213;-86
2021/12/19 03:45:49;;;;;;;19.53;10.80;;;;;;;;;;5043399;28;20206;-87
2021/12/19 03:48:43;;;;;;;20.80;11.37;;;;;;;;;;5039162;28;20209;-87
2021/12/19 03:51:48;;;;;;;22.10;11.90;;;;;;;;;;5044000;28;20218;-86
2021/12/19 03:54:33;;;;;;;23.90;12.90;;;;;;;;;;5045395;28;20733;-87
2021/12/19 03:57:26;;;;;;;24.00;12.53;;;;;;;;;;5046195;28;20216;-87
2021/12/19 04:23:49;;;;;;;19.47;10.67;;;;;;;;;;5028453;28;20217;-86
2021/12/19 04:26:42;;;;;;;17.60;10.50;;;;;;;;;;5039382;28;20237;-87
2021/12/19 04:35:11;;;;;;;17.80;10.53;;;;;;;;;;5033223;28;20213;-87
2021/12/19 04:53:46;;;;;;;20.27;10.83;;;;;;;;;;5052661;28;20375;-87
2021/12/19 05:02:39;;;;;;;;;;;;;;;;;;;;;
2021/12/19 05:19:51;;;;;;;21.63;11.90;;;;;;;;;;5038379;28;20232;-86
2021/12/19 05:22:33;;;;;;;18.40;10.93;;;;;;;;;;5033293;28;20225;-86
2021/12/19 05:25:14;;;;;;;19.83;11.37;;;;;;;;;;5035283;28;20229;-87
2021/12/19 05:27:45;;;;;;;20.17;11.50;;;;;;;;;;5060184;28;20305;-86
2021/12/19 05:30:20;;;;;;;19.67;11.60;;;;;;;;;;5049155;28;20241;-86
2021/12/19 05:44:09;;;;;;;20.13;12.00;;;;;;;;;;5048446;28;20201;-86
2021/12/19 05:47:25;;;;;;;18.87;10.83;;;;;;;;;;5022433;28;20264;-86
2021/12/19 05:49:57;;;;;;;19.20;10.87;;;;;;;;;;5041610;28;20217;-86
2021/12/19 05:52:27;;;;;;;19.07;11.43;;;;;;;;;;5038844;28;20217;-86
2021/12/19 05:54:54;;;;;;;20.33;11.23;;;;;;;;;;5038850;28;20220;-86
2021/12/19 05:57:31;;;;;;;20.80;10.90;;;;;;;;;;5046493;28;20222;-86
2021/12/19 05:59:58;;;;;;;20.17;10.67;;;;;;;;;;5043373;28;20213;-86
2021/12/19 06:02:29;;;;;;;20.67;11.13;;;;;;;;;;5039685;28;20218;-86
2021/12/19 06:04:58;;;;;;;19.00;10.87;;;;;;;;;;5038748;28;20267;-84
2021/12/19 06:07:25;;;;;;;17.63;10.27;;;;;;;;;;5031849;28;20202;-86
2021/12/19 06:09:56;;;;;;;20.13;11.13;;;;;;;;;;5029014;28;20758;-86
2021/12/19 06:12:23;;;;;;;16.87;10.30;;;;;;;;;;5038879;28;20229;-86
2021/12/19 06:14:52;;;;;;;17.80;9.57;;;;;;;;;;5035282;28;20197;-87
2021/12/19 06:17:19;;;;;;;20.13;10.73;;;;;;;;;;5035120;28;20252;-86
2021/12/19 06:19:47;;;;;;;17.87;9.40;;;;;;;;;;5035401;28;20220;-86
2021/12/19 06:22:15;;;;;;;18.47;10.47;;;;;;;;;;5035786;28;20249;-86
2021/12/19 06:24:45;;;;;;;16.57;9.27;;;;;;;;;;5035569;28;20264;-86
2021/12/19 06:27:12;;;;;;;17.37;9.07;;;;;;;;;;5036371;28;20225;-86
2021/12/19 06:29:42;;;;;;;16.27;9.33;;;;;;;;;;5049266;28;20236;-86
2021/12/19 06:33:11;;;;;;;;;;;;;;;;;;;;;
2021/12/19 06:38:51;;;;;;;15.37;8.30;;;;;;;;;;5012619;28;20242;-87
2021/12/19 06:41:19;;;;;;;17.07;9.40;;;;;;;;;;5054542;28;20229;-86
2021/12/19 06:43:47;;;;;;;17.07;8.43;;;;;;;;;;5039303;28;20205;-88
2021/12/19 06:46:16;;;;;;;16.07;8.50;;;;;;;;;;5038540;28;20263;-86
2021/12/19 06:48:43;;;;;;;12.97;7.73;;;;;;;;;;5033741;28;20606;-86
2021/12/19 06:51:14;;;;;;;12.27;7.63;;;;;;;;;;5040552;28;20287;-85
2021/12/19 06:53:42;;;;;;;13.23;8.40;;;;;;;;;;5032253;28;20249;-85
2021/12/19 06:56:12;;;;;;;13.10;7.50;;;;;;;;;;5032296;28;20206;-86
2021/12/19 06:58:40;;;;;;;13.77;7.27;;;;;;;;;;5038820;28;20208;-85
2021/12/19 07:03:57;;;;;;;13.30;7.07;;;;;;;;;;5038894;28;20212;-86
2021/12/19 07:06:24;;;;;;;11.20;6.97;;;;;;;;;;5057159;28;20292;-86
2021/12/19 07:08:52;;;;;;;11.10;6.93;;;;;;;;;;5040507;28;20213;-86
2021/12/19 07:11:23;;;;;;;12.47;7.33;;;;;;;;;;5052710;28;20285;-86
2021/12/19 07:13:51;;;;;;;12.33;7.23;;;;;;;;;;5044159;28;20760;-86
2021/12/19 07:16:18;;;;;;;11.00;6.60;;;;;;;;;;5054858;28;20209;-85
2021/12/19 07:18:50;;;;;;;11.57;7.00;;;;;;;;;;5041195;28;20267;-85
2021/12/19 07:21:20;;;;;;;11.83;7.13;;;;;;;;;;5045141;28;20238;-86
2021/12/19 07:23:53;;;;;;;12.63;7.50;;;;;;;;;;5047508;28;20679;-85
2021/12/19 07:29:10;;;;;;;10.20;6.90;;;;;;;;;;5046888;28;20215;-84
2021/12/19 07:31:48;;;;;;;10.40;6.80;;;;;;;;;;5040830;28;20225;-86
2021/12/19 07:34:18;;;;;;;11.30;6.80;;;;;;;;;;5039335;28;20249;-86
2021/12/19 07:36:50;;;;;;;11.27;6.73;;;;;;;;;;5038893;28;20205;-86
2021/12/19 07:39:40;;;;;;;9.90;6.07;;;;;;;;;;5048644;28;20205;-85
2021/12/19 07:42:09;;;;;;;9.90;6.07;;;;;;;;;;5052053;28;20239;-85
2021/12/19 07:44:46;;;;;;;12.20;7.30;;;;;;;;;;5032801;28;20240;-85
2021/12/19 07:47:18;;;;;;;11.23;6.73;;;;;;;;;;5046768;28;20208;-84
2021/12/19 07:49:45;;;;;;;11.37;6.83;;;;;;;;;;5051524;28;20205;-85
2021/12/19 07:52:13;;;;;;;9.63;6.77;;;;;;;;;;5055819;28;20252;-85
2021/12/19 07:54:40;;;;;;;10.67;6.37;;;;;;;;;;5047653;28;20254;-85
2021/12/19 07:57:09;;;;;;;8.73;6.17;;;;;;;;;;5052839;28;20232;-84
2021/12/19 07:59:47;;;;;;;8.83;6.00;;;;;;;;;;5052766;28;20217;-85
2021/12/19 08:02:33;;;;;;;;;;;;;;;;;;;;;
2021/12/19 08:05:13;;;;;;;10.87;6.37;;;;;;;;;;5033088;28;20205;-88
2021/12/19 08:08:06;;;;;;;10.60;6.60;;;;;;;;;;5031577;28;20204;-89
2021/12/19 08:16:39;;;;;;;11.73;6.40;;;;;;;;;;4997962;28;20289;-89
2021/12/19 08:19:07;;;;;;;8.83;6.03;;;;;;;;;;5000894;28;20723;-89
2021/12/19 08:21:34;;;;;;;10.00;6.30;;;;;;;;;;5002226;28;20242;-87
2021/12/19 08:24:04;;;;;;;10.50;6.40;;;;;;;;;;5006832;28;20226;-90
2021/12/19 08:26:32;;;;;;;9.93;6.93;;;;;;;;;;5013446;28;20210;-89
2021/12/19 08:28:59;;;;;;;9.53;6.70;;;;;;;;;;5006492;28;20227;-89
2021/12/19 08:31:35;;;;;;;9.93;6.70;;;;;;;;;;5013510;28;20242;-89
2021/12/19 08:34:12;;;;;;;8.17;5.47;;;;;;;;;;5004795;28;20230;-90
2021/12/19 08:36:42;;;;;;;7.27;5.17;;;;;;;;;;4996283;28;20222;-87
2021/12/19 08:41:51;;;;;;;6.07;4.60;;;;;;;;;;5006661;28;20298;-90
2021/12/19 08:44:20;;;;;;;6.47;4.60;;;;;;;;;;5007420;28;20199;-87
2021/12/19 08:46:48;;;;;;;6.30;5.00;;;;;;;;;;5013244;28;20190;-90
2021/12/19 08:49:19;;;;;;;7.03;4.70;;;;;;;;;;5023466;28;20218;-91
2021/12/19 08:51:48;;;;;;;6.10;4.70;;;;;;;;;;5011480;28;20246;-88
2021/12/19 08:54:15;;;;;;;6.03;4.67;;;;;;;;;;5002617;28;20234;-87
2021/12/19 08:56:42;;;;;;;5.13;4.20;;;;;;;;;;5003052;28;20214;-87
2021/12/19 08:59:10;;;;;;;5.20;3.97;;;;;;;;;;5008859;28;20203;-86
2021/12/19 09:01:38;;;;;;;6.40;4.53;;;;;;;;;;5002923;28;20234;-87
2021/12/19 09:04:06;;;;;;;5.10;4.30;;;;;;;;;;5004291;28;20295;-88
2021/12/19 09:06:38;;;;;;;6.57;4.70;;;;;;;;;;5008447;28;20277;-88
2021/12/19 09:09:06;;;;;;;6.37;4.53;;;;;;;;;;5002337;28;20235;-88
2021/12/19 09:11:37;;;;;;;7.13;5.07;;;;;;;;;;5004189;28;20223;-86
2021/12/19 09:14:05;;;;;;;6.00;4.53;;;;;;;;;;5008762;28;20242;-89
2021/12/19 09:16:32;;;;;;;6.03;4.73;;;;;;;;;;5011909;28;20234;-90
2021/12/19 09:19:00;;;;;;;7.07;4.83;;;;;;;;;;5007387;28;20209;-89
2021/12/19 09:21:27;;;;;;;7.63;5.07;;;;;;;;;;5000819;28;20259;-86
2021/12/19 09:24:05;;;;;;;7.23;4.83;;;;;;;;;;5017014;28;20294;-90
2021/12/19 09:26:35;;;;;;;6.27;4.67;;;;;;;;;;5022205;28;20207;-88
2021/12/19 09:29:02;;;;;;;5.53;4.40;;;;;;;;;;5007223;28;20204;-86
2021/12/19 09:31:30;;;;;;;5.23;4.40;;;;;;;;;;5007081;28;20222;-87
2021/12/19 09:33:57;;;;;;;5.67;4.10;;;;;;;;;;5010269;28;20214;-86
2021/12/19 09:36:30;;;;;;;6.50;4.50;;;;;;;;;;5002963;28;20245;-88
2021/12/19 09:38:59;;;;;;;7.53;4.80;;;;;;;;;;5006308;28;20199;-86
2021/12/19 09:41:29;;;;;;;5.47;4.10;;;;;;;;;;5005554;28;20226;-84
2021/12/19 09:43:58;;;;;;;7.40;5.30;;;;;;;;;;5018947;28;20194;-84
2021/12/19 09:46:29;;;;;;;6.70;5.50;;;;;;;;;;5017101;28;20225;-87
2021/12/19 09:48:57;;;;;;;6.03;4.10;;;;;;;;;;5019361;28;20258;-82
2021/12/19 09:51:24;;;;;;;4.50;3.80;;;;;;;;;;5014023;28;20264;-86
2021/12/19 09:53:51;;;;;;;5.40;4.13;;;;;;;;;;5020720;28;20226;-84
2021/12/19 09:56:20;;;;;;;6.93;4.93;;;;;;;;;;5017182;28;20262;-83
2021/12/19 09:58:48;;;;;;;5.23;4.37;;;;;;;;;;5030123;28;20226;-83
2021/12/19 10:01:15;;;;;;;4.47;3.77;;;;;;;;;;5008885;28;20231;-83
2021/12/19 10:03:43;;;;;;;5.10;4.30;;;;;;;;;;5018682;28;20207;-84
2021/12/19 10:06:18;;;;;;;4.80;3.90;;;;;;;;;;5023290;28;20210;-85
2021/12/19 10:08:45;;;;;;;6.40;3.63;;;;;;;;;;5022971;28;20208;-87
2021/12/19 10:11:34;;;;;;;3.80;3.23;;;;;;;;;;5015464;28;20248;-85
2021/12/19 10:14:03;;;;;;;4.23;3.53;;;;;;;;;;5017452;28;20226;-85
2021/12/19 10:16:32;;;;;;;4.17;3.43;;;;;;;;;;5016986;28;20211;-90
2021/12/19 10:19:00;;;;;;;4.20;3.80;;;;;;;;;;5013963;28;20273;-85
2021/12/19 10:21:28;;;;;;;5.03;3.60;;;;;;;;;;5008548;28;20224;-85
2021/12/19 10:24:03;;;;;;;4.13;3.47;;;;;;;;;;5016523;28;20282;-87
2021/12/19 10:26:58;;;;;;;4.73;3.60;;;;;;;;;;5008409;28;20289;-86
2021/12/19 10:29:54;;;;;;;4.07;3.37;;;;;;;;;;5009325;28;20222;-85
2021/12/19 10:32:30;;;;;;;4.13;3.73;;;;;;;;;;5015772;28;20246;-85
2021/12/19 10:38:00;;;;;;;3.87;3.47;;;;;;;;;;5008954;28;20207;-87
2021/12/19 11:11:52;;;;;;;4.57;3.80;;;;;;;;;;5594879;23;20231;-89
2021/12/19 11:14:29;;;;;;;5.57;4.27;;;;;;;;;;5025598;28;20240;-91
2021/12/19 11:17:04;;;;;;;4.50;3.80;;;;;;;;;;5036046;28;20240;-89
2021/12/19 11:19:44;;;;;;;4.13;3.73;;;;;;;;;;5037777;28;20205;-92
2021/12/19 11:22:13;;;;;;;4.07;3.53;;;;;;;;;;5036747;28;20225;-91
2021/12/19 11:24:40;;;;;;;4.10;3.40;;;;;;;;;;5023875;28;20297;-90
2021/12/19 11:30:20;;;;;;;4.03;3.63;;;;;;;;;;5012685;28;20212;-87
2021/12/19 11:33:17;;;;;;;4.47;3.27;;;;;;;;;;5035874;28;20213;-86
2021/12/19 11:42:42;;;;;;;4.10;3.70;;;;;;;;;;4970077;28;20216;-87
2021/12/19 12:16:43;;;;;;;4.40;4.00;;;;;;;;;;5022605;28;20214;-86
2021/12/19 12:19:14;;;;;;;5.20;4.70;;;;;;;;;;5014703;28;20210;-86
2021/12/19 12:21:46;;;;;;;5.20;4.70;;;;;;;;;;5020963;28;20214;-88
2021/12/19 12:24:18;;;;;;;5.43;4.93;;;;;;;;;;5009956;28;20242;-87
2021/12/19 12:27:24;;;;;;;5.13;4.63;;;;;;;;;;5003882;28;20234;-88
2021/12/19 12:29:51;;;;;;;6.77;5.00;;;;;;;;;;5013592;28;20297;-86
2021/12/19 12:32:22;;;;;;;5.77;5.20;;;;;;;;;;5009842;28;20201;-87
2021/12/19 12:34:49;;;;;;;6.20;5.60;;;;;;;;;;5007585;28;20218;-85
2021/12/19 12:37:17;;;;;;;5.63;5.03;;;;;;;;;;5010629;28;20218;-86
2021/12/19 12:39:45;;;;;;;6.20;5.37;;;;;;;;;;5022131;28;20206;-86
2021/12/19 12:42:13;;;;;;;5.83;4.47;;;;;;;;;;5021663;28;20199;-84
2021/12/19 12:44:42;;;;;;;5.87;5.07;;;;;;;;;;5032017;28;20235;-86
2021/12/19 12:47:09;;;;;;;5.33;4.83;;;;;;;;;;5030882;28;20229;-85
2021/12/19 12:49:38;;;;;;;5.67;5.03;;;;;;;;;;5011554;28;20631;-85
2021/12/19 12:52:07;;;;;;;6.77;5.27;;;;;;;;;;5010466;28;20207;-85
2021/12/19 12:54:37;;;;;;;5.80;5.20;;;;;;;;;;5012807;28;20226;-85
2021/12/19 12:57:05;;;;;;;5.90;5.30;;;;;;;;;;5012658;28;20312;-86
2021/12/19 12:59:35;;;;;;;6.03;4.83;;;;;;;;;;5006350;28;20664;-85
2021/12/19 13:02:11;;;;;;;12.03;8.67;;;;;;;;;;5001645;28;20216;-86
2021/12/19 13:04:41;;;;;;;8.93;7.13;;;;;;;;;;5011300;28;20222;-85
2021/12/19 13:07:09;;;;;;;9.37;7.17;;;;;;;;;;5012074;28;20699;-85
2021/12/19 13:09:38;;;;;;;10.37;8.43;;;;;;;;;;5011993;28;20275;-86
2021/12/19 13:12:07;;;;;;;7.83;7.00;;;;;;;;;;5007963;28;20202;-86
2021/12/19 13:14:35;;;;;;;21.17;16.17;;;;;;;;;;5005291;28;20233;-86
2021/12/19 13:17:06;;;;;;;8.57;7.50;;;;;;;;;;5005775;28;20225;-86
2021/12/19 13:19:34;;;;;;;15.67;12.87;;;;;;;;;;5001571;28;20558;-86
2021/12/19 13:22:03;;;;;;;8.70;7.63;;;;;;;;;;5003521;28;20203;-86
2021/12/19 13:24:32;;;;;;;7.27;6.57;;;;;;;;;;5010634;28;20268;-86
2021/12/19 13:27:04;;;;;;;10.27;9.20;;;;;;;;;;5010007;28;20226;-88
2021/12/19 13:33:26;;;;;;;9.27;8.27;;;;;;;;;;5008592;28;20268;-86
2021/12/19 13:36:08;;;;;;;9.93;7.10;;;;;;;;;;5022069;28;20237;-85
2021/12/19 13:38:37;;;;;;;9.63;7.67;;;;;;;;;;5026933;28;20190;-84
2021/12/19 13:44:33;;;;;;;7.30;6.57;;;;;;;;;;5011395;28;20257;-84
2021/12/19 13:47:00;;;;;;;8.23;7.43;;;;;;;;;;5010776;28;20227;-84
2021/12/19 13:49:28;;;;;;;8.77;7.23;;;;;;;;;;5012158;28;20264;-84
2021/12/19 13:51:55;;;;;;;7.57;6.80;;;;;;;;;;5010890;28;20225;-84
2021/12/19 13:54:31;;;;;;;9.53;7.70;;;;;;;;;;5016211;28;20245;-83
2021/12/19 13:56:59;;;;;;;9.60;8.00;;;;;;;;;;5010128;28;20232;-84
2021/12/19 13:59:27;;;;;;;9.00;7.93;;;;;;;;;;5016199;28;20210;-83
2021/12/19 14:01:55;;;;;;;8.60;7.57;;;;;;;;;;5013304;28;20218;-83
2021/12/19 14:04:24;;;;;;;9.93;7.53;;;;;;;;;;5013727;28;20199;-83
2021/12/19 14:06:52;;;;;;;9.23;7.13;;;;;;;;;;5011035;28;20233;-84
2021/12/19 14:09:19;;;;;;;8.23;7.23;;;;;;;;;;5012981;28;20322;-84
2021/12/19 14:11:55;;;;;;;8.60;7.67;;;;;;;;;;5013959;28;20206;-84
2021/12/19 14:14:27;;;;;;;10.17;7.77;;;;;;;;;;5013687;28;20233;-83
2021/12/19 14:16:59;;;;;;;9.43;7.47;;;;;;;;;;5009665;28;20222;-83
2021/12/19 14:19:27;;;;;;;10.13;8.03;;;;;;;;;;5013366;28;20233;-83
2021/12/19 14:21:58;;;;;;;9.23;7.57;;;;;;;;;;5013240;28;20207;-82
2021/12/19 14:24:35;;;;;;;9.33;7.70;;;;;;;;;;5012940;28;20199;-83
2021/12/19 14:27:20;;;;;;;10.47;8.33;;;;;;;;;;5009802;28;20222;-83
2021/12/19 14:29:50;;;;;;;9.27;8.00;;;;;;;;;;5009642;28;20206;-81
2021/12/19 14:32:18;;;;;;;7.83;7.03;;;;;;;;;;5015912;28;20229;-81
2021/12/19 14:34:47;;;;;;;8.20;6.90;;;;;;;;;;5021984;28;20214;-82
2021/12/19 14:37:17;;;;;;;8.67;7.10;;;;;;;;;;5012112;28;20230;-83
2021/12/19 14:39:57;;;;;;;9.23;7.70;;;;;;;;;;5007893;28;20250;-83
2021/12/19 14:42:29;;;;;;;9.47;8.03;;;;;;;;;;5008621;28;20214;-83
2021/12/19 14:44:58;;;;;;;7.80;5.90;;;;;;;;;;5012406;28;20237;-83
2021/12/19 14:47:39;;;;;;;6.93;6.00;;;;;;;;;;5011523;28;20222;-83
2021/12/19 14:50:17;;;;;;;8.10;6.30;;;;;;;;;;5010741;28;20209;-84
2021/12/19 14:53:00;;;;;;;8.37;6.23;;;;;;;;;;5012784;28;20202;-83
2021/12/19 14:55:30;;;;;;;8.97;6.67;;;;;;;;;;5017489;28;20226;-83
2021/12/19 14:58:02;;;;;;;8.13;6.10;;;;;;;;;;5016688;28;20218;-83
2021/12/19 15:00:31;;;;;;;10.27;7.40;;;;;;;;;;5018999;28;20234;-83
2021/12/19 15:02:58;;;;;;;10.40;7.93;;;;;;;;;;5018482;28;20203;-83
2021/12/19 15:05:32;;;;;;;10.20;8.50;;;;;;;;;;5018035;28;20199;-83
2021/12/19 15:07:59;;;;;;;10.63;8.07;;;;;;;;;;5013877;28;20204;-83
2021/12/19 15:10:27;;;;;;;11.90;7.80;;;;;;;;;;5015982;28;20266;-83
2021/12/19 15:12:54;;;;;;;10.93;8.23;;;;;;;;;;5020399;28;20269;-83
2021/12/19 15:15:21;;;;;;;11.47;8.07;;;;;;;;;;5009323;28;20243;-83
2021/12/19 15:17:50;;;;;;;11.87;8.47;;;;;;;;;;5016357;28;20202;-83
2021/12/19 15:20:17;;;;;;;11.53;8.63;;;;;;;;;;5015508;28;20206;-83
2021/12/19 15:22:45;;;;;;;30.50;27.57;;;;;;;;;;5012672;28;20205;-83
2021/12/19 15:25:13;;;;;;;19.70;17.73;;;;;;;;;;5015156;28;20203;-83
2021/12/19 15:27:42;;;;;;;14.83;12.23;;;;;;;;;;5013499;28;20206;-83
2021/12/19 15:30:10;;;;;;;12.00;9.40;;;;;;;;;;5016738;28;20206;-84
2021/12/19 15:32:38;;;;;;;11.23;8.90;;;;;;;;;;5012885;28;20222;-83
2021/12/19 15:35:07;;;;;;;11.30;8.53;;;;;;;;;;5012958;28;20219;-83
2021/12/19 15:37:35;;;;;;;11.70;8.67;;;;;;;;;;5015027;28;20256;-83
2021/12/19 15:40:02;;;;;;;12.93;9.03;;;;;;;;;;5012494;28;20203;-83
2021/12/19 15:42:29;;;;;;;12.33;8.83;;;;;;;;;;5009167;28;20195;-83
2021/12/19 15:44:57;;;;;;;12.27;8.73;;;;;;;;;;5015779;28;20226;-83
2021/12/19 15:47:24;;;;;;;11.87;8.83;;;;;;;;;;5006303;28;20250;-83
2021/12/19 15:49:51;;;;;;;13.10;9.47;;;;;;;;;;5009091;28;20233;-83
2021/12/19 15:52:23;;;;;;;12.77;9.40;;;;;;;;;;5008204;28;20223;-83
2021/12/19 15:54:50;;;;;;;11.63;8.50;;;;;;;;;;5008332;28;20226;-83
2021/12/19 15:57:18;;;;;;;13.87;9.60;;;;;;;;;;5013380;28;20246;-83
2021/12/19 15:59:45;;;;;;;10.90;8.63;;;;;;;;;;5006014;28;20207;-83
2021/12/19 16:02:18;;;;;;;12.93;9.23;;;;;;;;;;5010740;28;20230;-83
2021/12/19 16:04:48;;;;;;;11.43;8.63;;;;;;;;;;5006266;28;20201;-83
2021/12/19 16:07:16;;;;;;;17.70;10.97;;;;;;;;;;5013777;28;20218;-83
2021/12/19 16:09:45;;;;;;;15.50;10.37;;;;;;;;;;5012988;28;20225;-83
2021/12/19 16:12:12;;;;;;;12.50;10.40;;;;;;;;;;5011311;28;20223;-83
2021/12/19 16:14:40;;;;;;;12.13;8.50;;;;;;;;;;5006394;28;20264;-83
2021/12/19 16:17:08;;;;;;;12.30;9.07;;;;;;;;;;5006967;28;20223;-83
2021/12/19 16:19:35;;;;;;;14.13;10.37;;;;;;;;;;5015455;28;20301;-85
2021/12/19 16:22:03;;;;;;;11.57;9.40;;;;;;;;;;5017012;28;20198;-84
2021/12/19 16:24:32;;;;;;;10.87;8.57;;;;;;;;;;5018917;28;20203;-84
2021/12/19 16:27:02;;;;;;;13.73;10.00;;;;;;;;;;5012882;28;20230;-84
2021/12/19 16:29:30;;;;;;;14.90;10.33;;;;;;;;;;5015330;28;20198;-85
2021/12/19 16:32:00;;;;;;;13.43;9.70;;;;;;;;;;5009838;28;20231;-84
2021/12/19 16:34:30;;;;;;;14.27;11.10;;;;;;;;;;5010409;28;20282;-84
2021/12/19 16:36:58;;;;;;;14.53;10.00;;;;;;;;;;5012432;28;20218;-84
2021/12/19 16:39:26;;;;;;;12.70;9.83;;;;;;;;;;5012075;28;20229;-84
2021/12/19 16:42:03;;;;;;;15.60;10.73;;;;;;;;;;5014128;28;20222;-84
2021/12/19 16:44:32;;;;;;;15.67;11.43;;;;;;;;;;5008652;28;20203;-84
2021/12/19 16:47:00;;;;;;;16.27;10.60;;;;;;;;;;5014026;28;20249;-84
2021/12/19 16:49:28;;;;;;;16.17;11.53;;;;;;;;;;5015275;28;20225;-84
2021/12/19 16:51:57;;;;;;;14.83;11.53;;;;;;;;;;5021910;28;20210;-84
2021/12/19 16:54:27;;;;;;;15.13;10.63;;;;;;;;;;5022332;28;20230;-84
2021/12/19 16:56:55;;;;;;;15.13;10.57;;;;;;;;;;5008921;28;20233;-85
2021/12/19 16:59:22;;;;;;;16.00;11.00;;;;;;;;;;5019528;28;20194;-84
2021/12/19 17:01:51;;;;;;;16.90;10.73;;;;;;;;;;5008964;28;20202;-85
2021/12/19 17:04:18;;;;;;;17.70;11.77;;;;;;;;;;5010122;28;20242;-84
2021/12/19 17:06:45;;;;;;;12.17;9.07;;;;;;;;;;5013252;28;20238;-84
2021/12/19 17:09:13;;;;;;;12.50;9.57;;;;;;;;;;5016200;28;20199;-84
2021/12/19 17:11:49;;;;;;;14.07;8.90;;;;;;;;;;5015856;28;20254;-84
2021/12/19 17:14:16;;;;;;;14.60;9.73;;;;;;;;;;5012922;28;20237;-85
2021/12/19 17:16:45;;;;;;;13.97;9.67;;;;;;;;;;5009811;28;20289;-85
2021/12/19 17:19:14;;;;;;;15.43;10.47;;;;;;;;;;5011343;28;20229;-85
2021/12/19 17:21:42;;;;;;;15.83;10.63;;;;;;;;;;5013283;28;20211;-84
2021/12/19 17:24:10;;;;;;;13.77;10.27;;;;;;;;;;5009607;28;20237;-84
2021/12/19 17:26:38;;;;;;;14.73;10.30;;;;;;;;;;5041578;23;20221;-90
2021/12/19 17:29:08;;;;;;;14.57;9.87;;;;;;;;;;5037180;28;20194;-89
2021/12/19 17:31:40;;;;;;;14.70;10.00;;;;;;;;;;5034649;28;20205;-89
2021/12/19 17:34:08;;;;;;;15.07;10.10;;;;;;;;;;5041907;28;20209;-89
2021/12/19 17:36:51;;;;;;;;;;;;;;;;;;;;;
2021/12/19 17:48:18;;;;;;;15.17;10.37;;;;;;;;;;4995232;28;20218;-89
2021/12/19 17:50:51;;;;;;;16.63;11.00;;;;;;;;;;5034778;28;20269;-91
2021/12/19 17:56:19;;;;;;;17.90;10.70;;;;;;;;;;5045074;28;20215;-88
2021/12/19 18:11:04;;;;;;;14.87;10.23;;;;;;;;;;5025764;28;20203;-90
2021/12/19 18:21:39;;;;;;;15.70;10.10;;;;;;;;;;5013077;28;20198;-90
2021/12/19 18:25:01;;;;;;;14.50;10.17;;;;;;;;;;5014202;28;20209;-86
2021/12/19 18:30:39;;;;;;;14.30;9.83;;;;;;;;;;5013783;28;20210;-85
2021/12/19 18:36:40;;;;;;;14.87;11.20;;;;;;;;;;4958625;28;20225;-86
2021/12/19 18:39:12;;;;;;;16.43;11.70;;;;;;;;;;5019670;28;20206;-87
2021/12/19 18:41:58;;;;;;;17.17;11.63;;;;;;;;;;5013679;28;20207;-87
2021/12/19 18:44:34;;;;;;;16.60;11.10;;;;;;;;;;5011749;28;20196;-84
2021/12/19 18:47:27;;;;;;;17.57;10.47;;;;;;;;;;5015385;28;20714;-86
2021/12/19 18:50:25;;;;;;;17.57;11.80;;;;;;;;;;5015741;28;20210;-86
2021/12/19 18:55:57;;;;;;;15.53;11.00;;;;;;;;;;5016146;28;20303;-87
2021/12/19 18:58:34;;;;;;;14.17;10.10;;;;;;;;;;5016448;28;20242;-87
2021/12/19 19:01:23;;;;;;;15.53;11.03;;;;;;;;;;5013247;28;20229;-89
2021/12/19 19:09:56;;;;;;;14.80;10.43;;;;;;;;;;5006575;28;20215;-84
2021/12/19 19:12:39;;;;;;;16.10;11.13;;;;;;;;;;5010286;28;20203;-86
2021/12/19 19:15:17;;;;;;;16.40;11.13;;;;;;;;;;5018504;28;20203;-89
2021/12/19 19:17:46;;;;;;;18.93;12.20;;;;;;;;;;5017564;28;20230;-83
2021/12/19 19:20:15;;;;;;;15.60;12.10;;;;;;;;;;5012973;28;20241;-85
2021/12/19 19:22:43;;;;;;;18.63;12.77;;;;;;;;;;5019079;28;20213;-84
2021/12/19 19:25:13;;;;;;;18.77;12.50;;;;;;;;;;5020354;28;20260;-85
2021/12/19 19:27:40;;;;;;;17.20;12.33;;;;;;;;;;5020453;28;20219;-85